This is the latest recevied weather packets stored in our database for station/object SM6LNJ-13. If no packets are shown the sender has not sent any weather packets the latest 1 day(s).
| Time | Temp. | Humidity | Pressure | Rain* | Wind** | Luminosity | Snow |
|---|---|---|---|---|---|---|---|
| 1778064830 | 13.89° C | 36% | 1428 hPa | 0 mm | 0.89 m/s, 201° | - | - |
| 1778064710 | 13.89° C | 35% | 1428.2 hPa | 0 mm | 0.45 m/s, 189° | - | - |
| 1778064590 | 13.89° C | 35% | 1428.1 hPa | 0 mm | 0.89 m/s, 173° | - | - |
| 1778064470 | 13.89° C | 31% | 1428.2 hPa | 0 mm | 1.34 m/s, 183° | - | - |
| 1778064350 | 14.44° C | 31% | 1429 hPa | 0 mm | 1.79 m/s, 193° | - | - |
| 1778064230 | 15° C | 33% | 1430.5 hPa | 0 mm | 0.89 m/s, 187° | - | - |
| 1778064110 | 15° C | 34% | 1430.6 hPa | 0 mm | 0.89 m/s, 170° | - | - |
| 1778063990 | 15° C | 35% | 1430.6 hPa | 0 mm | 0.89 m/s, 193° | - | - |
| 1778063871 | 14.44° C | 35% | 1430 hPa | 0 mm | 0.89 m/s, 192° | - | - |
| 1778063750 | 14.44° C | 34% | 1429.6 hPa | 0 mm | 0.89 m/s, 209° | - | - |
| 1778063630 | 14.44° C | 34% | 1429.2 hPa | 0 mm | 1.34 m/s, 193° | - | - |
| 1778063510 | 13.89° C | 36% | 1428.9 hPa | 0 mm | 0.89 m/s, 180° | - | - |
| 1778063390 | 13.89° C | 35% | 1428.2 hPa | 0 mm | 0.89 m/s, 219° | - | - |
| 1778063150 | 12.78° C | 34% | 1426.2 hPa | 0 mm | 0.89 m/s, 179° | - | - |
| 1778063030 | 12.78° C | 33% | 1426.4 hPa | 0 mm | 1.79 m/s, 161° | - | - |
| 1778062911 | 12.78° C | 34% | 1426.4 hPa | 0 mm | 1.79 m/s, 184° | - | - |
| 1778062790 | 13.33° C | 34% | 1426.7 hPa | 0 mm | 1.34 m/s, 177° | - | - |
| 1778062670 | 13.33° C | 34% | 1427.2 hPa | 0 mm | 1.34 m/s, 211° | - | - |
| 1778062551 | 13.89° C | 34% | 1427.8 hPa | 0 mm | 1.34 m/s, 186° | - | - |
| 1778062430 | 13.89° C | 35% | 1427.7 hPa | 0 mm | 0.45 m/s, 161° | - | - |
| 1778062310 | 13.33° C | 33% | 1427.3 hPa | 0 mm | 1.34 m/s, 186° | - | - |
| 1778062190 | 13.33° C | 33% | 1426.9 hPa | 0 mm | 0.89 m/s, 183° | - | - |
| 1778062070 | 13.33° C | 32% | 1427.3 hPa | 0 mm | 1.79 m/s, 192° | - | - |
| 1778061950 | 13.89° C | 34% | 1428.6 hPa | 0 mm | 0.89 m/s, 195° | - | - |
| 1778061830 | 13.89° C | 33% | 1428.5 hPa | 0 mm | 1.34 m/s, 187° | - | - |
* Rain latest hour (hover to see other rain measurements)
** Current wind speed in m/s (hover to see current wind gust speed)